Time;durP1;ratioP1;P1;durP2;ratioP2;P2;SDS_P1;SDS_P2;PMS_P1;PMS_P2;Temp;Humidity;BMP_temperature;BMP_pressure;BME280_temperature;BME280_humidity;BME280_pressure;Samples;Min_cycle;Max_cycle;Signal;HPM_P1;HPM_P2
2023/03/24 00:00:20;;;;;;;;;3.67;3.67;;;;;17.68;100.00;99808.69;5078772;27;45709;-76
2023/03/24 00:02:47;;;;;;;;;6.00;6.00;;;;;17.67;100.00;99785.56;5077746;28;45375;-77
2023/03/24 00:05:22;;;;;;;;;5.33;5.33;;;;;17.74;100.00;99804.19;5081069;27;45436;-76
2023/03/24 00:07:49;;;;;;;;;6.33;4.67;;;;;17.70;100.00;99782.38;5082543;27;45394;-77
2023/03/24 00:10:17;;;;;;;;;4.67;4.67;;;;;17.82;100.00;99819.09;5082567;28;46235;-77
2023/03/24 00:12:44;;;;;;;;;6.67;5.67;;;;;17.79;100.00;99810.47;5082054;27;45313;-77
2023/03/24 00:15:16;;;;;;;;;5.00;4.33;;;;;17.86;100.00;99814.84;5073976;27;45379;-78
2023/03/24 00:17:41;;;;;;;;;4.33;4.33;;;;;17.87;100.00;99822.66;5076952;28;45358;-76
2023/03/24 00:20:13;;;;;;;;;6.00;6.00;;;;;17.88;100.00;99826.19;5080708;28;47355;-77
2023/03/24 00:22:49;;;;;;;;;6.00;6.00;;;;;17.90;100.00;99832.13;5095780;27;45506;-77
2023/03/24 00:25:22;;;;;;;;;4.33;4.33;;;;;17.98;100.00;99828.19;5082340;27;45545;-77
2023/03/24 00:27:48;;;;;;;;;5.00;5.00;;;;;17.87;100.00;99816.50;5080518;28;46057;-77
2023/03/24 00:30:15;;;;;;;;;4.00;4.00;;;;;18.07;100.00;99825.94;5081864;27;45376;-76
2023/03/24 00:32:40;;;;;;;;;7.67;6.33;;;;;18.04;100.00;99829.91;5081806;27;45387;-77
2023/03/24 00:35:09;;;;;;;;;6.00;5.00;;;;;18.04;100.00;99832.59;5080698;28;45329;-76
2023/03/24 00:37:38;;;;;;;;;6.00;5.00;;;;;18.01;100.00;99833.91;5080601;28;46362;-76
2023/03/24 00:40:08;;;;;;;;;5.33;5.33;;;;;18.02;100.00;99823.97;5081849;27;45432;-76
2023/03/24 00:42:34;;;;;;;;;5.00;5.00;;;;;18.04;100.00;99829.91;5080021;28;45367;-76
2023/03/24 00:45:00;;;;;;;;;3.67;3.33;;;;;18.02;100.00;99832.03;5080609;28;45324;-76
2023/03/24 00:47:25;;;;;;;;;7.00;7.00;;;;;18.14;100.00;99832.78;5081542;27;45387;-75
2023/03/24 00:49:53;;;;;;;;;8.00;8.00;;;;;18.30;100.00;99851.81;5081665;28;46192;-76
2023/03/24 00:52:21;;;;;;;;;6.33;6.33;;;;;18.24;100.00;99837.50;5081353;27;45887;-76
2023/03/24 00:54:49;;;;;;;;;8.67;7.00;;;;;18.31;100.00;99860.72;5081870;27;45306;-75
2023/03/24 00:57:22;;;;;;;;;5.33;5.33;;;;;18.27;100.00;99838.88;5080263;28;46278;-75
2023/03/24 00:59:48;;;;;;;;;6.67;6.67;;;;;18.26;100.00;99845.31;5081420;27;46591;-76
2023/03/24 01:02:20;;;;;;;;;5.67;5.00;;;;;18.26;100.00;99846.09;5081586;27;45466;-76
2023/03/24 01:04:53;;;;;;;;;7.67;5.67;;;;;18.28;100.00;99857.44;5081356;27;45378;-75
2023/03/24 01:07:20;;;;;;;;;6.33;6.33;;;;;18.28;100.00;99853.94;5079856;28;47298;-75
2023/03/24 01:09:58;;;;;;;;;7.00;6.00;;;;;18.34;100.00;99860.19;5081224;28;45389;-75
2023/03/24 01:12:32;;;;;;;;;5.00;5.00;;;;;18.30;100.00;99865.28;5081347;27;45345;-76
2023/03/24 01:14:59;;;;;;;;;8.00;6.67;;;;;18.32;100.00;99862.34;5075957;27;45225;-76
2023/03/24 01:17:25;;;;;;;;;7.67;6.33;;;;;18.31;100.00;99860.72;5071713;28;46949;-75
2023/03/24 01:19:51;;;;;;;;;6.33;6.33;;;;;18.14;100.00;99846.22;5094840;27;45971;-76
2023/03/24 01:22:16;;;;;;;;;7.00;7.00;;;;;18.32;100.00;99851.56;5080886;27;45402;-76
2023/03/24 01:24:43;;;;;;;;;5.67;5.67;;;;;18.30;100.00;99854.50;5080850;28;45338;-76
2023/03/24 01:27:08;;;;;;;;;9.00;8.33;;;;;18.29;100.00;99842.94;5079883;28;46115;-76
2023/03/24 01:29:34;;;;;;;;;5.00;5.00;;;;;18.23;100.00;99848.50;5074949;28;46225;-77
2023/03/24 01:31:59;;;;;;;;;6.00;6.00;;;;;18.24;100.00;99864.38;5073511;28;45454;-75
2023/03/24 01:34:25;;;;;;;;;6.00;6.00;;;;;18.21;100.00;99866.75;5079796;28;45413;-75
2023/03/24 01:36:50;;;;;;;;;7.33;7.33;;;;;18.12;100.00;99850.22;5079595;28;45942;-75
2023/03/24 01:39:16;;;;;;;;;5.67;5.67;;;;;18.16;100.00;99854.03;5079584;28;47233;-75
2023/03/24 01:41:41;;;;;;;;;5.67;5.67;;;;;18.07;100.00;99847.44;5081273;27;45335;-75
2023/03/24 01:44:31;;;;;;;;;7.00;7.00;;;;;18.07;100.00;99850.91;5080929;28;45823;-75
2023/03/24 01:46:57;;;;;;;;;6.33;6.33;;;;;18.02;100.00;99846.28;5079333;28;45927;-76
2023/03/24 01:49:26;;;;;;;;;7.00;6.67;;;;;17.96;100.00;99858.00;5071689;27;45458;-75
2023/03/24 01:51:56;;;;;;;;;7.00;7.00;;;;;17.94;100.00;99856.63;5076571;28;45610;-75
2023/03/24 01:54:59;;;;;;;;;6.00;6.00;;;;;17.92;100.00;99865.78;5081085;27;45276;-75
2023/03/24 01:57:36;;;;;;;;;7.33;6.33;;;;;17.91;100.00;99861.47;5021202;28;46301;-75
2023/03/24 02:00:10;;;;;;;;;4.00;4.00;;;;;17.88;100.00;99869.19;5074892;27;46114;-74
2023/03/24 02:02:39;;;;;;;;;4.00;4.00;;;;;17.85;100.00;99870.50;5079192;28;45853;-75
2023/03/24 02:05:09;;;;;;;;;1.00;1.00;;;;;17.85;100.00;99864.28;5078761;28;45369;-75
2023/03/24 02:07:37;;;;;;;;;5.33;5.00;;;;;17.88;100.00;99879.94;5079278;28;45978;-75
2023/03/24 02:10:06;;;;;;;;;6.00;5.33;;;;;17.87;100.00;99875.63;5079989;27;45399;-75
2023/03/24 02:12:32;;;;;;;;;7.00;6.00;;;;;17.84;100.00;99870.75;5079089;28;45502;-75
2023/03/24 02:14:59;;;;;;;;;5.00;5.00;;;;;17.84;100.00;99868.84;5080438;27;45220;-75
2023/03/24 02:17:57;;;;;;;;;4.67;3.67;;;;;17.85;100.00;99867.81;5080461;27;45507;-75
2023/03/24 02:20:41;;;;;;;;;4.67;4.67;;;;;17.84;100.00;99854.63;5078617;28;48679;-75
2023/03/24 02:23:25;;;;;;;;;3.67;3.00;;;;;17.86;100.00;99845.25;5079937;28;45314;-76
2023/03/24 02:26:27;;;;;;;;;5.00;3.67;;;;;17.85;100.00;99851.69;5079665;27;45373;-76
2023/03/24 02:29:36;;;;;;;;;7.00;4.33;;;;;17.78;100.00;99835.72;5078906;27;45283;-75
2023/03/24 02:32:25;;;;;;;;;4.67;4.67;;;;;17.73;100.00;99824.06;5072612;28;46320;-75
2023/03/24 02:35:25;;;;;;;;;4.33;4.33;;;;;17.70;100.00;99856.78;5080245;27;45362;-75
2023/03/24 02:37:56;;;;;;;;;6.00;4.00;;;;;17.67;100.00;99860.78;5079090;27;45328;-75
2023/03/24 02:40:31;;;;;;;;;4.00;4.00;;;;;17.65;100.00;99869.09;5078392;28;46119;-75
2023/03/24 02:43:02;;;;;;;;;6.67;5.33;;;;;17.68;100.00;99865.09;5079765;27;46243;-75
2023/03/24 02:46:02;;;;;;;;;3.33;3.33;;;;;17.67;100.00;99872.38;5079886;28;45348;-75
2023/03/24 02:48:48;;;;;;;;;6.00;6.00;;;;;17.64;100.00;99869.34;5062809;27;45200;-75
2023/03/24 02:51:25;;;;;;;;;4.67;4.67;;;;;17.69;100.00;99874.78;5079783;27;45290;-75
2023/03/24 02:54:02;;;;;;;;;5.00;5.00;;;;;17.71;100.00;99883.44;5079520;28;46444;-75
2023/03/24 02:56:30;;;;;;;;;4.33;4.33;;;;;17.83;100.00;99888.72;5079849;27;45427;-76
2023/03/24 02:59:02;;;;;;;;;3.33;3.33;;;;;17.72;100.00;99868.94;5079978;27;45362;-75
2023/03/24 03:01:39;;;;;;;;;4.33;4.00;;;;;17.75;100.00;99867.66;5078347;28;47427;-75
2023/03/24 03:04:17;;;;;;;;;4.00;4.00;;;;;17.68;100.00;99875.84;5079534;27;45476;-76
2023/03/24 03:06:51;;;;;;;;;7.00;5.00;;;;;17.60;100.00;99869.00;5077805;27;45307;-75
2023/03/24 03:09:20;;;;;;;;;4.33;4.00;;;;;17.65;100.00;99870.97;5079979;27;45288;-75
2023/03/24 03:11:50;;;;;;;;;3.33;3.33;;;;;17.66;100.00;99878.78;5079420;27;45736;-76
2023/03/24 03:14:22;;;;;;;;;2.67;2.67;;;;;17.57;100.00;99868.69;5079429;27;45354;-76
2023/03/24 03:16:53;;;;;;;;;3.00;3.00;;;;;17.50;100.00;99877.72;5078187;28;45403;-76
2023/03/24 03:19:27;;;;;;;;;4.67;4.00;;;;;17.52;100.00;99878.28;5079468;27;45295;-75
2023/03/24 03:21:53;;;;;;;;;3.00;3.00;;;;;17.48;100.00;99887.88;5079390;27;45423;-75
2023/03/24 03:24:28;;;;;;;;;3.67;3.67;;;;;17.59;100.00;99902.31;5079191;27;45317;-75
2023/03/24 03:26:59;;;;;;;;;3.00;2.00;;;;;17.50;100.00;99899.19;5079296;28;45299;-75
2023/03/24 03:29:32;;;;;;;;;2.00;2.00;;;;;17.53;100.00;99901.41;5077836;27;45469;-75
2023/03/24 03:32:06;;;;;;;;;4.00;3.00;;;;;17.51;100.00;99908.88;5066487;27;45706;-75
2023/03/24 03:34:44;;;;;;;;;5.00;5.00;;;;;17.50;100.00;99912.63;5066288;28;45564;-74
2023/03/24 03:37:51;;;;;;;;;3.00;2.67;;;;;17.52;100.00;99907.00;5078738;28;45382;-74
2023/03/24 03:40:23;;;;;;;;;4.33;4.00;;;;;17.49;100.00;99899.44;5076081;28;45377;-75
2023/03/24 03:42:48;;;;;;;;;3.33;3.00;;;;;17.52;100.00;99910.53;5082985;28;45360;-75
2023/03/24 03:45:14;;;;;;;;;2.33;2.33;;;;;17.51;100.00;99919.63;5081848;27;46303;-75
2023/03/24 03:47:39;;;;;;;;;6.00;3.67;;;;;17.48;100.00;99925.47;5082740;28;45267;-75
2023/03/24 03:50:07;;;;;;;;;1.33;1.33;;;;;17.43;100.00;99911.97;5081178;28;45343;-75
2023/03/24 03:52:34;;;;;;;;;1.67;1.33;;;;;17.42;100.00;99918.41;5082375;27;45473;-75
2023/03/24 03:55:00;;;;;;;;;1.33;1.33;;;;;17.39;100.00;99916.97;5081117;27;47521;-75
2023/03/24 03:57:26;;;;;;;;;2.00;2.00;;;;;17.32;100.00;99919.00;5082431;28;45323;-75
2023/03/24 03:59:51;;;;;;;;;1.33;0.67;;;;;17.31;100.00;99919.25;5082595;27;45216;-75
2023/03/24 04:02:35;;;;;;;;;0.00;0.00;;;;;17.31;100.00;99927.28;5082834;27;45240;-75
2023/03/24 04:05:12;;;;;;;;;2.00;1.00;;;;;17.28;100.00;99931.28;5081925;28;45385;-74
2023/03/24 04:08:02;;;;;;;;;2.00;2.00;;;;;17.28;100.00;99913.31;5081123;28;46224;-75
2023/03/24 04:11:12;;;;;;;;;1.00;1.00;;;;;17.16;100.00;99934.81;5081102;28;45310;-75
2023/03/24 04:14:09;;;;;;;;;1.00;1.00;;;;;17.12;100.00;99940.91;5082119;27;45386;-77
2023/03/24 04:17:17;;;;;;;;;2.00;1.67;;;;;17.03;100.00;99945.81;5080778;28;48139;-75
2023/03/24 04:20:11;;;;;;;;;0.33;0.00;;;;;17.04;100.00;99942.84;5081674;27;45315;-76
2023/03/24 04:23:01;;;;;;;;;2.00;0.33;;;;;17.08;100.00;99953.16;5082271;27;45338;-75
2023/03/24 04:25:49;;;;;;;;;2.33;1.33;;;;;17.10;100.00;99945.69;5082098;27;45534;-76
2023/03/24 04:28:31;;;;;;;;;1.00;1.00;;;;;17.01;100.00;99942.53;5082111;28;46138;-76
2023/03/24 04:31:22;;;;;;;;;0.00;0.00;;;;;17.07;100.00;99952.34;5078652;28;45306;-76
2023/03/24 04:34:01;;;;;;;;;0.00;0.00;;;;;17.00;100.00;99949.75;5082079;27;45291;-75
2023/03/24 04:36:43;;;;;;;;;0.00;0.00;;;;;17.06;100.00;99957.94;5081677;27;45335;-75
2023/03/24 04:39:16;;;;;;;;;2.00;2.00;;;;;17.03;100.00;99961.91;5081561;27;45995;-75
2023/03/24 04:41:44;;;;;;;;;1.00;1.00;;;;;16.99;100.00;99966.94;5081902;27;45357;-75
2023/03/24 04:44:11;;;;;;;;;1.00;1.00;;;;;16.97;100.00;99974.38;5080535;28;45425;-75
2023/03/24 04:46:38;;;;;;;;;1.00;1.00;;;;;16.92;100.00;99982.34;5081850;27;45472;-75
2023/03/24 04:49:04;;;;;;;;;1.00;0.67;;;;;16.83;100.00;99979.19;5081483;27;45385;-75
2023/03/24 04:51:30;;;;;;;;;1.00;1.00;;;;;16.79;100.00;99978.84;5079135;27;45577;-74
2023/03/24 04:53:56;;;;;;;;;1.67;1.00;;;;;16.76;100.00;99984.69;5081771;28;45351;-75
2023/03/24 04:56:37;;;;;;;;;1.67;1.00;;;;;16.77;100.00;99986.31;5081643;28;45515;-75
2023/03/24 04:59:03;;;;;;;;;1.00;1.00;;;;;16.68;100.00;99995.78;5081507;27;45407;-75
2023/03/24 05:01:29;;;;;;;;;1.00;1.00;;;;;16.77;100.00;99993.56;5079896;28;45558;-75
2023/03/24 05:03:56;;;;;;;;;0.33;0.33;;;;;16.73;100.00;99981.66;5080247;28;45396;-75
2023/03/24 05:06:21;;;;;;;;;0.00;0.00;;;;;16.74;100.00;99988.66;5081131;27;45390;-75
2023/03/24 05:08:46;;;;;;;;;1.33;0.67;;;;;16.76;100.00;99986.56;5080128;28;46971;-75
2023/03/24 05:11:12;;;;;;;;;0.00;0.00;;;;;16.77;100.00;99991.66;5080875;27;54881;-75
2023/03/24 05:13:37;;;;;;;;;1.00;1.00;;;;;16.68;100.00;99987.72;5080104;27;45221;-75
2023/03/24 05:16:03;;;;;;;;;2.67;0.67;;;;;16.77;100.00;99999.72;5081418;27;45398;-75
2023/03/24 05:18:28;;;;;;;;;4.67;2.67;;;;;16.76;100.00;100008.81;5081277;27;46001;-75
2023/03/24 05:20:54;;;;;;;;;3.33;0.67;;;;;16.78;100.00;100025.53;5079740;28;45376;-75
2023/03/24 05:23:19;;;;;;;;;2.33;1.00;;;;;16.81;100.00;100018.03;5080376;28;45346;-75
2023/03/24 05:25:46;;;;;;;;;0.33;0.33;;;;;16.76;100.00;100038.34;5080855;28;45287;-76
2023/03/24 05:28:11;;;;;;;;;0.00;0.00;;;;;16.61;100.00;100027.28;5081002;27;45985;-75
2023/03/24 05:30:37;;;;;;;;;1.67;1.33;;;;;16.55;100.00;100041.59;5067496;28;45311;-75
2023/03/24 05:33:02;;;;;;;;;0.00;0.00;;;;;16.37;100.00;100037.97;5081082;27;45486;-75
2023/03/24 05:35:28;;;;;;;;;1.67;0.33;;;;;16.45;100.00;100039.47;5080787;28;45397;-75
2023/03/24 05:37:53;;;;;;;;;0.67;0.00;;;;;16.40;100.00;100034.78;5081173;27;45296;-75
2023/03/24 05:40:18;;;;;;;;;2.33;1.00;;;;;16.38;100.00;100048.44;5078947;28;56056;-75
2023/03/24 05:42:44;;;;;;;;;2.00;1.33;;;;;16.41;100.00;100056.03;5081216;28;45325;-75
2023/03/24 05:45:10;;;;;;;;;1.33;1.33;;;;;16.38;100.00;100050.31;5080829;28;45490;-74
2023/03/24 05:47:36;;;;;;;;;1.00;1.00;;;;;16.39;100.00;100054.63;5079805;27;47357;-74
2023/03/24 05:50:02;;;;;;;;;3.00;1.67;;;;;16.37;100.00;100062.09;5080359;27;45283;-74
2023/03/24 05:52:27;;;;;;;;;1.00;1.00;;;;;16.34;100.00;100059.88;5081119;27;45161;-74
2023/03/24 05:54:53;;;;;;;;;2.00;1.00;;;;;16.34;100.00;100058.00;5078992;27;45765;-75
2023/03/24 05:57:20;;;;;;;;;3.00;2.00;;;;;16.31;100.00;100060.31;5060737;28;46124;-74
2023/03/24 05:59:45;;;;;;;;;1.67;1.67;;;;;16.24;100.00;100066.59;5077012;28;45328;-74
2023/03/24 06:02:11;;;;;;;;;1.67;1.00;;;;;16.20;100.00;100067.28;5076680;27;45331;-74
2023/03/24 06:04:36;;;;;;;;;0.33;0.00;;;;;16.17;100.00;100087.31;5079615;27;45910;-74
2023/03/24 06:07:03;;;;;;;;;2.33;2.00;;;;;16.08;100.00;100094.03;5080193;27;45205;-75
2023/03/24 06:09:34;;;;;;;;;1.00;1.00;;;;;15.99;100.00;100096.22;5079558;27;45352;-75
2023/03/24 06:12:00;;;;;;;;;0.67;0.67;;;;;15.99;100.00;100098.91;5079075;28;45397;-74
2023/03/24 06:14:26;;;;;;;;;2.33;2.00;;;;;15.90;100.00;100109.09;5079910;27;45636;-74
2023/03/24 06:16:51;;;;;;;;;0.33;0.33;;;;;15.95;100.00;100105.72;5079960;28;45361;-74
2023/03/24 06:19:21;;;;;;;;;2.33;1.67;;;;;15.95;100.00;100109.22;5079802;28;48386;-74
2023/03/24 06:21:49;;;;;;;;;2.33;2.33;;;;;15.93;100.00;100115.84;5080333;28;45289;-74
2023/03/24 06:24:15;;;;;;;;;4.00;4.00;;;;;15.86;100.00;100121.31;5079906;27;45468;-75
2023/03/24 06:26:49;;;;;;;;;4.00;1.00;;;;;15.84;100.00;100131.41;5078737;28;46985;-75
2023/03/24 06:29:18;;;;;;;;;2.00;1.00;;;;;15.82;100.00;100139.69;5067216;28;46174;-74
2023/03/24 06:31:45;;;;;;;;;3.33;1.33;;;;;15.78;100.00;100155.38;5069818;28;47277;-75
2023/03/24 06:34:10;;;;;;;;;2.00;2.00;;;;;15.69;100.00;100137.97;5083770;27;45528;-75
2023/03/24 06:36:36;;;;;;;;;2.00;1.33;;;;;15.85;100.00;100160.66;5089258;27;45406;-75
2023/03/24 06:39:02;;;;;;;;;1.33;1.33;;;;;15.87;100.00;100158.56;5078441;28;45282;-76
2023/03/24 06:41:28;;;;;;;;;5.00;1.00;;;;;15.90;100.00;100168.84;5080419;27;45313;-76
2023/03/24 06:43:53;;;;;;;;;0.67;0.67;;;;;15.85;100.00;100154.47;5079497;28;49273;-75
2023/03/24 06:46:18;;;;;;;;;2.33;2.00;;;;;15.92;100.00;100171.28;5079777;27;55259;-75
2023/03/24 06:48:45;;;;;;;;;4.33;3.33;;;;;15.97;100.00;100166.13;5079818;28;45228;-74
2023/03/24 06:51:10;;;;;;;;;1.33;1.33;;;;;15.94;100.00;100163.88;5078550;28;45347;-75
2023/03/24 06:53:36;;;;;;;;;2.67;2.67;;;;;15.94;100.00;100171.91;5078862;28;45260;-75
2023/03/24 06:56:01;;;;;;;;;3.00;0.67;;;;;15.95;100.00;100168.16;5068406;28;46202;-75
2023/03/24 06:58:27;;;;;;;;;2.67;1.33;;;;;15.85;100.00;100158.00;5064044;28;45375;-76
2023/03/24 07:00:52;;;;;;;;;2.67;2.33;;;;;15.90;100.00;100173.41;5079404;27;45362;-75
2023/03/24 07:03:17;;;;;;;;;2.00;2.00;;;;;15.92;100.00;100178.53;5071295;28;45350;-74
2023/03/24 07:05:44;;;;;;;;;1.67;1.67;;;;;15.85;100.00;100179.41;5078794;27;51164;-74
2023/03/24 07:08:10;;;;;;;;;3.00;3.00;;;;;15.92;100.00;100187.38;5078266;27;45950;-74
2023/03/24 07:10:38;;;;;;;;;5.33;2.33;;;;;16.00;100.00;100187.13;5079835;27;45531;-75
2023/03/24 07:13:04;;;;;;;;;4.33;3.67;;;;;16.10;100.00;100199.19;5077643;28;47033;-74
2023/03/24 07:15:29;;;;;;;;;1.33;1.33;;;;;16.18;100.00;100200.72;5077103;28;47148;-74
2023/03/24 07:17:54;;;;;;;;;3.00;2.33;;;;;16.18;100.00;100195.34;5076781;28;45338;-76
2023/03/24 07:20:20;;;;;;;;;4.00;3.33;;;;;16.16;100.00;100203.63;5076327;27;45540;-75
2023/03/24 07:22:46;;;;;;;;;2.00;1.33;;;;;16.20;100.00;100206.69;5072649;27;45347;-75
2023/03/24 07:25:13;;;;;;;;;2.33;2.00;;;;;16.27;100.00;100205.56;5059040;28;45307;-74
2023/03/24 07:27:39;;;;;;;;;3.00;3.00;;;;;16.33;100.00;100213.72;5059581;28;45359;-74
2023/03/24 07:30:05;;;;;;;;;5.33;3.00;;;;;16.26;100.00;100213.84;5072968;28;45326;-75
2023/03/24 07:32:33;;;;;;;;;4.00;4.00;;;;;16.25;100.00;100212.19;5066064;28;47082;-75
2023/03/24 07:34:59;;;;;;;;;4.67;1.33;;;;;16.20;100.00;100210.19;5077596;27;45923;-75
2023/03/24 07:37:25;;;;;;;;;3.33;1.67;;;;;16.22;100.00;100226.84;5079263;28;45248;-75
2023/03/24 07:39:50;;;;;;;;;3.33;2.67;;;;;16.30;100.00;100214.19;5074857;27;45152;-75
2023/03/24 07:42:16;;;;;;;;;2.00;1.00;;;;;16.25;100.00;100230.97;5069009;28;55717;-75
2023/03/24 07:44:41;;;;;;;;;2.67;2.00;;;;;16.26;100.00;100227.25;5078737;28;54266;-74
2023/03/24 07:47:06;;;;;;;;;2.00;2.00;;;;;16.27;100.00;100229.69;5079166;28;45349;-74
2023/03/24 07:49:32;;;;;;;;;4.33;2.00;;;;;16.34;100.00;100234.97;5078963;27;45309;-74
2023/03/24 07:51:58;;;;;;;;;1.67;1.67;;;;;16.37;100.00;100223.78;5078863;28;45410;-75
2023/03/24 07:54:23;;;;;;;;;2.67;2.00;;;;;16.33;100.00;100227.13;5078646;27;46114;-75
2023/03/24 07:56:49;;;;;;;;;3.67;2.67;;;;;16.28;100.00;100227.81;5079369;27;45357;-73
2023/03/24 07:59:16;;;;;;;;;1.00;1.00;;;;;16.41;100.00;100232.22;5077540;28;45504;-74
2023/03/24 08:01:41;;;;;;;;;4.33;2.00;;;;;16.43;100.00;100237.34;5078950;28;45449;-73
2023/03/24 08:04:12;;;;;;;;;3.00;2.00;;;;;16.43;100.00;100223.94;5078511;27;45402;-74
2023/03/24 08:06:38;;;;;;;;;2.00;1.00;;;;;16.58;100.00;100240.44;5073794;27;45403;-74
2023/03/24 08:09:04;;;;;;;;;5.67;3.00;;;;;16.64;100.00;100239.53;5078368;27;45349;-74
2023/03/24 08:11:29;;;;;;;;;2.00;1.33;;;;;16.79;100.00;100246.34;5060010;28;45867;-73
2023/03/24 08:13:55;;;;;;;;;5.33;3.00;;;;;16.89;100.00;100251.19;5070800;28;46220;-75
2023/03/24 08:16:20;;;;;;;;;4.00;3.00;;;;;16.98;97.80;100252.50;5078431;27;45336;-74
2023/03/24 08:18:47;;;;;;;;;3.00;2.00;;;;;17.01;98.03;100259.28;5078911;27;45331;-74
2023/03/24 08:21:13;;;;;;;;;5.00;3.00;;;;;17.02;97.48;100248.31;5060998;27;45498;-75
2023/03/24 08:23:38;;;;;;;;;1.33;1.33;;;;;17.12;96.17;100271.94;5069251;28;45375;-74
2023/03/24 08:26:04;;;;;;;;;2.00;1.00;;;;;17.03;97.29;100259.88;5080860;28;45345;-76
2023/03/24 08:28:29;;;;;;;;;2.67;2.33;;;;;17.05;97.35;100271.19;5081365;27;45306;-75
2023/03/24 08:30:54;;;;;;;;;2.00;0.00;;;;;17.02;96.58;100256.34;5082364;27;45453;-75
2023/03/24 08:33:20;;;;;;;;;2.67;1.67;;;;;17.06;95.46;100264.75;5081402;27;45470;-75
2023/03/24 08:35:45;;;;;;;;;3.33;2.33;;;;;17.13;94.78;100262.84;5082049;27;45263;-75
2023/03/24 08:38:11;;;;;;;;;4.67;1.00;;;;;17.25;94.30;100264.72;5080762;28;45252;-75
2023/03/24 08:40:39;;;;;;;;;1.00;1.00;;;;;17.38;93.58;100279.81;5082107;27;45366;-74
2023/03/24 08:43:07;;;;;;;;;3.33;2.00;;;;;17.46;92.46;100278.66;5080287;28;48942;-75
2023/03/24 08:45:33;;;;;;;;;6.00;3.00;;;;;17.48;93.13;100276.56;5080741;28;45724;-75
2023/03/24 08:48:02;;;;;;;;;3.00;2.00;;;;;17.48;90.90;100279.25;5082086;27;45334;-75
2023/03/24 08:50:31;;;;;;;;;4.00;2.00;;;;;17.42;91.38;100279.13;5081513;27;46515;-75
2023/03/24 08:52:56;;;;;;;;;2.33;1.00;;;;;17.43;90.13;100288.00;5080964;28;45284;-74
2023/03/24 08:55:22;;;;;;;;;1.67;1.00;;;;;17.44;90.37;100284.25;5081577;27;45276;-75
2023/03/24 08:57:48;;;;;;;;;1.00;1.00;;;;;17.45;89.29;100285.88;5081441;27;45336;-74
2023/03/24 09:00:15;;;;;;;;;2.00;1.67;;;;;17.44;89.75;100286.09;5080398;28;47435;-75
2023/03/24 09:02:42;;;;;;;;;2.00;2.00;;;;;17.56;90.34;100291.50;5081232;27;46131;-74
2023/03/24 09:05:07;;;;;;;;;2.00;2.00;;;;;17.62;90.68;100307.53;5081529;28;45276;-75
2023/03/24 09:07:33;;;;;;;;;3.00;2.00;;;;;17.72;89.88;100301.56;5081419;28;45366;-74
2023/03/24 09:09:58;;;;;;;;;3.00;3.00;;;;;17.77;88.49;100304.38;5081269;28;45322;-74
2023/03/24 09:12:23;;;;;;;;;2.67;2.67;;;;;17.83;88.41;100309.84;5080905;28;50875;-74
2023/03/24 09:14:49;;;;;;;;;6.00;3.00;;;;;17.79;86.81;100312.22;5080984;27;51965;-75
2023/03/24 09:17:15;;;;;;;;;2.00;0.00;;;;;17.73;86.46;100322.03;5081627;27;45280;-74
2023/03/24 09:19:41;;;;;;;;;2.00;1.00;;;;;17.70;85.42;100316.28;5079615;28;47031;-75
2023/03/24 09:22:06;;;;;;;;;1.33;1.33;;;;;17.67;84.70;100312.22;5081405;28;45345;-74
2023/03/24 09:24:31;;;;;;;;;5.00;3.00;;;;;17.63;84.61;100313.72;5080545;28;52089;-75
2023/03/24 09:26:57;;;;;;;;;2.33;2.00;;;;;17.62;84.86;100312.06;5081499;27;45338;-74
2023/03/24 09:29:22;;;;;;;;;2.00;2.00;;;;;17.69;85.37;100311.97;5080685;27;45315;-74
2023/03/24 09:31:48;;;;;;;;;3.33;1.33;;;;;17.79;84.26;100307.66;5080426;28;51918;-74
2023/03/24 09:34:13;;;;;;;;;5.00;2.00;;;;;17.90;84.73;100310.59;5080632;27;51290;-74
2023/03/24 09:36:38;;;;;;;;;4.00;3.67;;;;;18.04;83.42;100313.84;5080520;27;45314;-74
2023/03/24 09:39:04;;;;;;;;;3.00;3.00;;;;;17.92;81.38;100311.97;5080818;27;45475;-75
2023/03/24 09:41:30;;;;;;;;;2.00;1.00;;;;;17.85;82.88;100318.53;5080628;28;54043;-74
2023/03/24 09:44:02;;;;;;;;;4.67;3.00;;;;;17.83;82.81;100309.84;5081045;28;45338;-74
2023/03/24 09:46:37;;;;;;;;;2.67;1.00;;;;;17.94;83.33;100313.59;5081257;28;45267;-76
2023/03/24 09:49:04;;;;;;;;;3.00;2.33;;;;;18.02;83.58;100318.66;5080426;27;45288;-75
2023/03/24 09:51:38;;;;;;;;;1.33;0.00;;;;;18.02;82.70;100308.69;5079133;28;48603;-75
2023/03/24 09:54:06;;;;;;;;;3.33;2.00;;;;;18.16;82.82;100314.69;5080773;27;45282;-75
2023/03/24 09:56:36;;;;;;;;;4.00;1.67;;;;;18.27;80.43;100312.22;5080608;28;45467;-74
2023/03/24 09:59:11;;;;;;;;;2.00;1.00;;;;;18.31;79.81;100321.44;5079462;28;47358;-75
2023/03/24 10:01:36;;;;;;;;;3.67;3.00;;;;;18.29;80.95;100312.81;5080494;27;45348;-76
2023/03/24 10:04:03;;;;;;;;;2.67;2.00;;;;;18.19;79.30;100299.94;5080886;27;45402;-75
2023/03/24 10:06:37;;;;;;;;;3.67;1.33;;;;;18.22;79.04;100306.72;5079917;27;45375;-75
2023/03/24 10:09:21;;;;;;;;;2.67;1.67;;;;;18.28;79.51;100309.28;5092089;27;45489;-75
2023/03/24 10:12:21;;;;;;;;;3.33;2.33;;;;;18.44;80.08;100311.47;5079145;28;47034;-74
2023/03/24 10:15:05;;;;;;;;;3.00;1.00;;;;;18.42;78.08;100314.41;5080336;28;45354;-75
2023/03/24 10:17:39;;;;;;;;;1.67;1.00;;;;;18.50;76.87;100299.78;5080581;27;45408;-75
2023/03/24 10:20:36;;;;;;;;;0.67;0.67;;;;;18.71;75.43;100306.38;5067864;28;45315;-75
2023/03/24 10:23:10;;;;;;;;;3.00;1.33;;;;;18.86;75.90;100313.13;5080235;27;46253;-75
2023/03/24 10:25:50;;;;;;;;;0.67;0.67;;;;;19.03;73.38;100303.19;5080131;28;45326;-76
2023/03/24 10:28:29;;;;;;;;;3.00;1.00;;;;;19.08;71.25;100307.06;5068995;28;45349;-75
2023/03/24 10:30:59;;;;;;;;;1.00;1.00;;;;;19.06;71.80;100291.13;5075546;28;45717;-74
2023/03/24 10:33:25;;;;;;;;;4.33;2.67;;;;;19.27;72.72;100305.78;5076836;28;48080;-74
2023/03/24 10:36:07;;;;;;;;;1.00;1.00;;;;;19.46;73.32;100302.88;5073030;27;45298;-74
2023/03/24 10:38:32;;;;;;;;;3.67;2.00;;;;;19.57;72.10;100295.75;5079129;27;45313;-75
2023/03/24 10:41:00;;;;;;;;;3.00;3.00;;;;;19.58;70.62;100297.41;5072234;27;45353;-75
2023/03/24 10:43:26;;;;;;;;;3.00;2.00;;;;;19.54;70.96;100312.41;5059970;28;45306;-74
2023/03/24 10:45:54;;;;;;;;;3.33;2.67;;;;;19.63;70.09;100304.75;5059901;28;45454;-75
2023/03/24 10:48:43;;;;;;;;;5.33;3.00;;;;;19.73;71.47;100309.47;5069897;28;45334;-75
2023/03/24 10:51:20;;;;;;;;;5.00;5.00;;;;;19.83;71.85;100312.31;5073067;28;46307;-75
2023/03/24 10:53:47;;;;;;;;;2.00;1.00;;;;;19.97;69.47;100296.63;5075775;27;46021;-75
2023/03/24 10:57:05;;;;;;;;;1.25;1.00;;;;;20.15;67.58;100309.03;5079998;27;45368;-75
2023/03/24 10:59:59;;;;;;;;;4.00;2.33;;;;;20.18;65.12;100310.41;5065698;27;45495;-75
2023/03/24 11:02:30;;;;;;;;;6.00;1.33;;;;;20.23;64.09;100310.47;5078909;28;45420;-75
2023/03/24 11:05:15;;;;;;;;;1.50;1.25;;;;;20.24;64.34;100314.81;5077460;28;47038;-75
2023/03/24 11:07:45;;;;;;;;;0.00;0.00;;;;;20.25;63.54;100311.06;5073706;28;45470;-75
2023/03/24 11:10:12;;;;;;;;;2.00;1.75;;;;;20.38;65.24;100309.06;5076550;27;45350;-75
2023/03/24 11:12:57;;;;;;;;;3.00;1.00;;;;;20.45;63.41;100309.69;5075083;28;47026;-75
2023/03/24 11:15:29;;;;;;;;;1.33;1.00;;;;;20.33;60.65;100317.06;5075220;28;45630;-78
2023/03/24 11:18:15;;;;;;;;;1.50;0.25;;;;;20.17;61.62;100308.75;5063794;28;45378;-78
2023/03/24 11:20:47;;;;;;;;;4.00;1.75;;;;;20.12;60.96;100335.69;5071698;28;45373;-75
2023/03/24 11:23:27;;;;;;;;;1.00;1.00;;;;;20.06;59.54;100332.91;5079704;27;45338;-75
2023/03/24 11:26:13;;;;;;;;;1.50;0.00;;;;;20.08;60.10;100327.25;5072606;28;47202;-77
2023/03/24 11:28:41;;;;;;;;;2.33;2.00;;;;;20.14;58.78;100312.78;5079369;27;45380;-75
2023/03/24 11:31:17;;;;;;;;;2.00;2.00;;;;;20.24;59.55;100308.59;5079675;27;45296;-75
2023/03/24 11:33:53;;;;;;;;;1.50;1.00;;;;;20.26;61.38;100301.09;5078959;27;45464;-75
2023/03/24 11:36:29;;;;;;;;;2.50;2.50;;;;;20.44;61.11;100313.44;5077390;28;48236;-75
2023/03/24 11:39:25;;;;;;;;;1.00;1.00;;;;;20.58;59.57;100307.66;5077882;28;45377;-75
2023/03/24 11:42:04;;;;;;;;;1.25;1.25;;;;;20.54;58.90;100301.94;5066660;27;45289;-76